createdAt,value
2023-11-25T00:00:41.682Z,1.70
2023-11-25T00:03:08.371Z,1.60
2023-11-25T00:05:35.218Z,1.60
2023-11-25T00:08:01.979Z,1.50
2023-11-25T00:10:28.677Z,1.50
2023-11-25T00:12:56.024Z,1.40
2023-11-25T00:15:24.892Z,1.40
2023-11-25T00:17:52.181Z,1.40
2023-11-25T00:20:19.856Z,1.40
2023-11-25T00:22:46.907Z,1.40
2023-11-25T00:25:13.968Z,1.40
2023-11-25T00:27:41.031Z,1.50
2023-11-25T00:30:11.259Z,1.50
2023-11-25T00:32:42.110Z,1.40
2023-11-25T00:35:10.002Z,1.50
2023-11-25T00:37:37.127Z,1.40
2023-11-25T00:40:06.207Z,1.50
2023-11-25T00:42:33.003Z,1.40
2023-11-25T00:44:59.797Z,1.40
2023-11-25T00:47:28.931Z,1.50
2023-11-25T00:49:56.773Z,1.40
2023-11-25T00:52:23.724Z,1.30
2023-11-25T00:54:50.539Z,1.40
2023-11-25T00:57:17.316Z,1.40
2023-11-25T00:59:44.541Z,1.40
2023-11-25T01:02:11.490Z,1.50
2023-11-25T01:04:40.476Z,1.50
2023-11-25T01:07:07.316Z,1.60
2023-11-25T01:09:35.549Z,1.60
2023-11-25T01:12:02.258Z,1.60
2023-11-25T01:14:29.205Z,1.60
2023-11-25T01:16:56.209Z,1.70
2023-11-25T01:19:24.363Z,3.10
2023-11-25T01:21:51.053Z,1.70
2023-11-25T01:24:18.661Z,1.60
2023-11-25T01:26:45.366Z,1.60
2023-11-25T01:29:12.398Z,1.60
2023-11-25T01:31:39.461Z,1.50
2023-11-25T01:34:07.567Z,1.60
2023-11-25T01:36:34.525Z,1.60
2023-11-25T01:39:01.204Z,1.60
2023-11-25T01:41:27.890Z,1.60
2023-11-25T01:43:56.163Z,1.60
2023-11-25T01:46:39.003Z,1.60
2023-11-25T01:49:13.578Z,1.60
2023-11-25T01:51:44.145Z,1.50
2023-11-25T01:54:13.285Z,1.60
2023-11-25T01:56:40.355Z,1.60
2023-11-25T01:59:08.237Z,1.60
2023-11-25T02:01:35.484Z,1.60
2023-11-25T02:04:02.485Z,1.60
2023-11-25T02:06:29.260Z,1.50
2023-11-25T02:08:55.898Z,1.50
2023-11-25T02:11:24.252Z,1.50
2023-11-25T02:13:51.107Z,1.60
2023-11-25T02:16:18.010Z,1.60
2023-11-25T02:18:44.938Z,2.60
2023-11-25T02:21:11.921Z,1.70
2023-11-25T02:23:38.879Z,1.50
2023-11-25T02:26:05.744Z,1.50
2023-11-25T02:28:32.745Z,1.50
2023-11-25T02:30:59.403Z,1.50
2023-11-25T02:33:32.579Z,1.50
2023-11-25T02:35:59.278Z,1.50
2023-11-25T02:38:25.937Z,1.40
2023-11-25T02:40:52.734Z,1.50
2023-11-25T02:43:19.772Z,1.50
2023-11-25T02:45:46.890Z,1.40
2023-11-25T02:48:17.109Z,1.40
2023-11-25T02:50:44.645Z,1.30
2023-11-25T02:53:11.448Z,1.30
2023-11-25T02:55:38.307Z,1.30
2023-11-25T02:58:05.081Z,1.30
2023-11-25T03:00:34.864Z,1.30
2023-11-25T03:03:09.050Z,1.30
2023-11-25T03:05:39.653Z,1.20
2023-11-25T03:08:07.210Z,1.20
2023-11-25T03:10:33.947Z,1.20
2023-11-25T03:13:00.781Z,1.20
2023-11-25T03:15:27.454Z,1.20
2023-11-25T03:17:55.616Z,1.20
2023-11-25T03:20:22.479Z,1.30
2023-11-25T03:22:49.615Z,1.20
2023-11-25T03:25:16.498Z,1.20
2023-11-25T03:27:43.346Z,1.20
2023-11-25T03:30:12.894Z,1.20
2023-11-25T03:32:39.679Z,1.10
2023-11-25T03:35:07.661Z,1.20
2023-11-25T03:37:34.586Z,1.20
2023-11-25T03:40:01.536Z,1.10
2023-11-25T03:42:28.446Z,1.10
2023-11-25T03:44:55.210Z,1.00
2023-11-25T03:47:21.877Z,0.90
2023-11-25T03:49:48.637Z,0.90
2023-11-25T03:52:16.658Z,0.90
2023-11-25T03:54:44.297Z,0.90
2023-11-25T03:57:11.027Z,0.90
2023-11-25T03:59:37.692Z,0.90
2023-11-25T04:02:04.618Z,0.90
2023-11-25T04:04:31.469Z,0.90
2023-11-25T04:06:58.412Z,0.90
2023-11-25T04:09:26.080Z,0.80
2023-11-25T04:11:53.358Z,0.80
2023-11-25T04:14:20.824Z,0.80
2023-11-25T04:16:47.876Z,0.70
2023-11-25T04:19:15.006Z,0.70
2023-11-25T04:21:46.902Z,0.60
2023-11-25T04:24:13.546Z,0.60
2023-11-25T04:26:42.036Z,0.60
2023-11-25T04:29:10.147Z,0.70
2023-11-25T04:31:38.469Z,0.60
2023-11-25T04:34:06.770Z,0.60
2023-11-25T04:36:35.370Z,1.10
2023-11-25T04:39:02.320Z,0.40
2023-11-25T04:41:29.032Z,0.40
2023-11-25T04:43:56.105Z,0.30
2023-11-25T04:46:23.376Z,0.30
2023-11-25T04:48:50.242Z,0.30
2023-11-25T04:51:24.345Z,0.20
2023-11-25T04:53:51.390Z,0.10
2023-11-25T04:56:18.081Z,0.10
2023-11-25T04:58:44.946Z,0.90
2023-11-25T05:01:11.696Z,0.10
2023-11-25T05:03:38.436Z,0.10
2023-11-25T05:06:09.291Z,0.00
2023-11-25T05:08:35.956Z,-0.10
2023-11-25T05:11:02.714Z,-0.10
2023-11-25T05:13:29.424Z,0.00
2023-11-25T05:15:56.338Z,0.00
2023-11-25T05:18:23.049Z,0.00
2023-11-25T05:20:49.672Z,0.00
2023-11-25T05:23:16.550Z,0.00
2023-11-25T05:25:43.158Z,0.10
2023-11-25T05:28:09.824Z,0.20
2023-11-25T05:30:36.410Z,0.20
2023-11-25T05:33:03.178Z,0.20
2023-11-25T05:35:29.849Z,0.30
2023-11-25T05:37:56.803Z,0.20
2023-11-25T05:40:23.463Z,0.20
2023-11-25T05:42:54.911Z,0.20
2023-11-25T05:45:25.504Z,0.20
2023-11-25T05:47:52.533Z,0.20
2023-11-25T05:50:23.469Z,0.20
2023-11-25T05:52:51.291Z,0.20
2023-11-25T05:55:20.942Z,0.20
2023-11-25T05:57:48.130Z,0.10
2023-11-25T06:00:15.846Z,0.00
2023-11-25T06:02:42.947Z,0.00
2023-11-25T06:05:13.383Z,0.10
2023-11-25T06:07:40.046Z,0.10
2023-11-25T06:10:07.094Z,0.20
2023-11-25T06:12:33.974Z,0.10
2023-11-25T06:15:01.763Z,0.20
2023-11-25T06:17:28.535Z,0.90
2023-11-25T06:19:55.313Z,0.30
2023-11-25T06:22:22.905Z,0.40
2023-11-25T06:24:49.705Z,0.40
2023-11-25T06:27:17.566Z,0.50
2023-11-25T06:29:44.488Z,0.50
2023-11-25T06:32:11.203Z,0.60
2023-11-25T06:34:38.071Z,0.60
2023-11-25T06:37:04.760Z,0.70
2023-11-25T06:39:33.853Z,0.70
2023-11-25T06:42:01.475Z,0.70
2023-11-25T06:44:28.562Z,0.80
2023-11-25T06:46:55.215Z,0.80
2023-11-25T06:49:21.993Z,0.80
2023-11-25T06:51:49.477Z,0.80
2023-11-25T06:54:16.201Z,0.90
2023-11-25T06:56:42.930Z,0.80
2023-11-25T06:59:09.522Z,0.90
2023-11-25T07:01:36.711Z,0.90
2023-11-25T07:04:05.504Z,0.90
2023-11-25T07:06:32.533Z,0.90
2023-11-25T07:09:01.494Z,1.10
2023-11-25T07:11:29.147Z,0.90
2023-11-25T07:13:55.932Z,1.00
2023-11-25T07:16:23.241Z,1.00
2023-11-25T07:18:50.317Z,1.00
2023-11-25T07:21:17.054Z,1.00
2023-11-25T07:23:44.124Z,1.00
2023-11-25T07:26:13.356Z,1.00
2023-11-25T07:28:40.720Z,1.10
2023-11-25T07:31:08.776Z,1.10
2023-11-25T07:33:35.561Z,-0.20
2023-11-25T07:36:02.364Z,1.20
2023-11-25T07:38:29.790Z,1.20
2023-11-25T07:40:56.997Z,1.30
2023-11-25T07:43:26.077Z,1.30
2023-11-25T07:45:53.218Z,1.20
2023-11-25T07:48:20.553Z,1.20
2023-11-25T07:50:51.038Z,1.20
2023-11-25T07:53:18.457Z,1.10
2023-11-25T07:55:45.256Z,1.10
2023-11-25T07:58:12.465Z,1.10
2023-11-25T08:00:39.231Z,1.10
2023-11-25T08:03:06.126Z,1.10
2023-11-25T08:05:32.946Z,1.10
2023-11-25T08:07:59.691Z,1.10
2023-11-25T08:10:32.340Z,1.20
2023-11-25T08:13:00.841Z,1.20
2023-11-25T08:15:28.019Z,1.20
2023-11-25T08:17:55.434Z,1.30
2023-11-25T08:20:22.155Z,1.30
2023-11-25T08:22:49.398Z,1.40
2023-11-25T08:25:16.254Z,1.40
2023-11-25T08:27:43.720Z,1.40
2023-11-25T08:30:11.008Z,1.40
2023-11-25T08:32:41.312Z,1.40
2023-11-25T08:35:11.552Z,1.30
2023-11-25T08:37:40.182Z,1.30
2023-11-25T08:40:08.313Z,1.30
2023-11-25T08:42:35.095Z,1.30
2023-11-25T08:45:03.533Z,1.50
2023-11-25T08:47:30.815Z,1.40
2023-11-25T08:49:58.040Z,1.40
2023-11-25T08:52:26.017Z,1.50
2023-11-25T08:54:53.841Z,1.50
2023-11-25T08:57:22.208Z,1.50
2023-11-25T08:59:49.333Z,1.60
2023-11-25T09:02:23.682Z,1.60
2023-11-25T09:05:03.061Z,1.70
2023-11-25T09:07:35.841Z,1.80
2023-11-25T09:10:06.804Z,1.80
2023-11-25T09:12:33.615Z,1.70
2023-11-25T09:15:01.024Z,1.80
2023-11-25T09:17:27.913Z,1.80
2023-11-25T09:19:54.828Z,1.80
2023-11-25T09:22:21.993Z,1.80
2023-11-25T09:24:48.746Z,1.80
2023-11-25T09:27:15.635Z,1.80
2023-11-25T09:29:47.023Z,1.80
2023-11-25T09:32:14.150Z,2.00
2023-11-25T09:34:40.908Z,2.10
2023-11-25T09:37:09.054Z,2.20
2023-11-25T09:39:36.504Z,2.30
2023-11-25T09:42:03.393Z,2.30
2023-11-25T09:44:30.650Z,2.30
2023-11-25T09:46:57.794Z,2.40
2023-11-25T09:49:24.906Z,2.40
2023-11-25T09:51:52.449Z,2.40
2023-11-25T09:54:21.767Z,2.50
2023-11-25T09:56:51.828Z,2.60
2023-11-25T09:59:21.469Z,2.60
2023-11-25T10:01:49.783Z,2.70
2023-11-25T10:04:17.029Z,2.70
2023-11-25T10:06:43.781Z,2.70
2023-11-25T10:09:13.491Z,2.70
2023-11-25T10:11:44.288Z,2.60
2023-11-25T10:14:14.671Z,2.70
2023-11-25T10:16:48.108Z,2.70
2023-11-25T10:19:19.543Z,2.70
2023-11-25T10:21:47.588Z,2.80
2023-11-25T10:24:14.652Z,2.80
2023-11-25T10:26:41.525Z,2.80
2023-11-25T10:29:11.029Z,2.90
2023-11-25T10:31:40.810Z,3.00
2023-11-25T10:34:11.448Z,3.10
2023-11-25T10:36:39.774Z,3.20
2023-11-25T10:39:09.478Z,3.20
2023-11-25T10:41:38.723Z,3.20
2023-11-25T10:44:06.568Z,3.20
2023-11-25T10:46:41.786Z,3.20
2023-11-25T10:49:09.866Z,3.30
2023-11-25T10:51:38.281Z,3.40
2023-11-25T10:54:06.194Z,3.40
2023-11-25T10:56:33.483Z,3.40
2023-11-25T10:59:00.795Z,3.50
2023-11-25T11:01:30.343Z,3.60
2023-11-25T11:03:57.133Z,3.60
2023-11-25T11:06:30.082Z,3.80
2023-11-25T11:08:57.055Z,3.70
2023-11-25T11:11:32.917Z,3.70
2023-11-25T11:14:02.293Z,3.60
2023-11-25T11:16:48.095Z,3.70
2023-11-25T11:19:17.197Z,3.80
2023-11-25T11:21:45.080Z,3.90
2023-11-25T11:24:14.214Z,3.80
2023-11-25T11:26:50.943Z,3.80
2023-11-25T11:29:30.211Z,3.70
2023-11-25T11:32:00.645Z,3.70
2023-11-25T11:34:32.690Z,3.80
2023-11-25T11:37:04.578Z,3.60
2023-11-25T11:39:39.043Z,5.20
2023-11-25T11:42:24.548Z,5.30
2023-11-25T11:45:19.306Z,3.30
2023-11-25T11:47:47.626Z,2.40
2023-11-25T11:50:18.524Z,4.20
2023-11-25T11:52:50.959Z,3.20
2023-11-25T11:55:33.591Z,2.90
2023-11-25T11:58:05.397Z,3.10
2023-11-25T12:00:36.025Z,4.30
2023-11-25T12:03:03.394Z,4.10
2023-11-25T12:05:30.360Z,3.60
2023-11-25T12:07:57.502Z,4.00
2023-11-25T12:10:24.648Z,5.00
2023-11-25T12:12:52.485Z,4.80
2023-11-25T12:15:19.607Z,5.60
2023-11-25T12:17:47.320Z,2.00
2023-11-25T12:20:20.401Z,5.50
2023-11-25T12:22:47.619Z,3.50
2023-11-25T12:25:20.970Z,4.20
2023-11-25T12:27:51.954Z,5.00
2023-11-25T12:30:18.735Z,5.50
2023-11-25T12:32:46.796Z,4.10
2023-11-25T12:35:15.262Z,3.20
2023-11-25T12:37:45.981Z,3.80
2023-11-25T12:40:18.662Z,5.80
2023-11-25T12:42:46.040Z,2.60
2023-11-25T12:45:27.436Z,4.10
2023-11-25T12:47:54.270Z,5.10
2023-11-25T12:50:22.347Z,4.90
2023-11-25T12:53:02.677Z,4.90
2023-11-25T12:55:40.482Z,4.40
2023-11-25T12:58:12.533Z,3.60
2023-11-25T13:00:51.948Z,3.20
2023-11-25T13:03:22.615Z,3.40
2023-11-25T13:05:51.040Z,3.30
2023-11-25T13:08:21.862Z,5.50
2023-11-25T13:10:48.881Z,3.30
2023-11-25T13:13:15.883Z,5.00
2023-11-25T13:15:43.505Z,3.00
2023-11-25T13:18:12.197Z,4.50
2023-11-25T13:20:46.194Z,4.00
2023-11-25T14:35:27.156Z,2.60
2023-11-25T14:37:57.906Z,2.70
2023-11-25T14:40:25.245Z,2.60
2023-11-25T14:42:52.184Z,2.60
2023-11-25T14:45:19.137Z,2.60
2023-11-25T14:47:46.353Z,2.60
2023-11-25T14:50:14.122Z,2.70
2023-11-25T14:52:41.744Z,2.60
2023-11-25T14:55:12.719Z,2.60
2023-11-25T14:57:40.016Z,2.60
2023-11-25T15:00:09.726Z,2.70
2023-11-25T15:02:37.084Z,2.60
2023-11-25T15:05:04.693Z,2.60
2023-11-25T15:07:31.508Z,2.60
2023-11-25T15:12:25.428Z,2.60
2023-11-25T15:14:55.522Z,2.60
2023-11-25T15:17:23.534Z,2.70
2023-11-25T15:19:50.259Z,2.60
2023-11-25T15:22:16.999Z,2.60
2023-11-25T15:24:43.659Z,2.60
2023-11-25T15:27:10.421Z,2.70
2023-11-25T15:29:37.161Z,4.30
2023-11-25T15:32:04.031Z,2.70
2023-11-25T15:34:30.757Z,2.60
2023-11-25T15:36:57.554Z,2.60
2023-11-25T15:39:28.305Z,2.50
2023-11-25T15:41:55.225Z,2.50
2023-11-25T15:44:22.015Z,2.60
2023-11-25T15:46:49.322Z,2.60
2023-11-25T15:49:16.995Z,2.60
2023-11-25T15:51:45.210Z,2.60
2023-11-25T15:54:12.429Z,2.60
2023-11-25T15:56:39.723Z,2.60
2023-11-25T15:59:07.894Z,2.60
2023-11-25T16:01:35.533Z,2.50
2023-11-25T16:04:03.457Z,2.50
2023-11-25T16:06:30.434Z,2.50
2023-11-25T16:08:58.011Z,2.50
2023-11-25T16:11:25.958Z,2.50
2023-11-25T16:13:52.629Z,2.50
2023-11-25T16:16:19.839Z,2.50
2023-11-25T16:18:46.715Z,2.50
2023-11-25T16:21:13.880Z,4.50
2023-11-25T16:23:42.418Z,2.80
2023-11-25T16:26:11.607Z,1.20
2023-11-25T16:28:38.625Z,2.50
2023-11-25T16:31:07.268Z,2.50
2023-11-25T16:33:35.617Z,2.50
2023-11-25T16:36:02.584Z,2.50
2023-11-25T16:38:31.676Z,2.50
2023-11-25T16:40:58.522Z,2.50
2023-11-25T16:43:26.556Z,2.40
2023-11-25T16:45:53.707Z,2.50
2023-11-25T16:48:29.644Z,2.50
2023-11-25T16:51:05.478Z,2.50
2023-11-25T16:53:33.346Z,2.50
2023-11-25T16:56:01.346Z,3.60
2023-11-25T16:58:28.526Z,2.60
2023-11-25T17:00:59.491Z,2.60
2023-11-25T17:03:30.011Z,2.50
2023-11-25T17:05:58.995Z,2.50
2023-11-25T17:08:26.409Z,2.60
2023-11-25T17:10:53.243Z,2.60
2023-11-25T17:13:21.391Z,2.60
2023-11-25T17:15:48.562Z,2.60
2023-11-25T17:18:17.223Z,2.50
2023-11-25T17:20:45.191Z,2.60
2023-11-25T17:23:14.093Z,2.50
2023-11-25T17:25:44.331Z,2.50
2023-11-25T17:28:11.429Z,2.50
2023-11-25T17:30:39.201Z,2.50
2023-11-25T17:33:09.206Z,2.50
2023-11-25T17:35:37.743Z,2.40
2023-11-25T17:38:04.566Z,2.60
2023-11-25T17:40:32.545Z,4.00
2023-11-25T17:45:35.489Z,2.60
2023-11-25T17:58:38.234Z,2.50
2023-11-25T18:12:27.900Z,1.60
2023-11-25T18:14:54.690Z,2.30
2023-11-25T18:17:29.418Z,3.80
2023-11-25T18:20:01.179Z,4.00
2023-11-25T18:22:30.477Z,2.70
2023-11-25T18:25:11.878Z,4.60
2023-11-25T18:28:19.438Z,2.60
2023-11-25T18:30:46.311Z,2.70
2023-11-25T18:33:14.685Z,4.10
2023-11-25T18:35:41.944Z,2.60
2023-11-25T18:38:08.892Z,2.60
2023-11-25T18:40:36.612Z,2.80
2023-11-25T18:43:03.500Z,2.70
2023-11-25T18:45:30.101Z,2.70
2023-11-25T18:47:57.102Z,2.70
2023-11-25T18:50:28.582Z,2.70
2023-11-25T18:52:55.847Z,3.90
2023-11-25T18:55:22.554Z,2.70
2023-11-25T18:57:49.251Z,2.70
2023-11-25T19:00:16.006Z,2.70
2023-11-25T19:02:42.818Z,2.70
2023-11-25T19:05:09.812Z,2.70
2023-11-25T19:07:37.003Z,2.70
2023-11-25T19:10:04.161Z,2.70
2023-11-25T19:12:32.063Z,2.60
2023-11-25T19:14:59.645Z,2.60
2023-11-25T19:17:26.690Z,2.60
2023-11-25T19:19:53.709Z,2.50
2023-11-25T19:22:20.409Z,2.50
2023-11-25T19:24:47.037Z,2.50
2023-11-25T19:27:13.920Z,2.60
2023-11-25T19:29:43.148Z,3.70
2023-11-25T19:32:10.403Z,2.60
2023-11-25T19:34:37.279Z,2.50
2023-11-25T19:37:04.574Z,2.50
2023-11-25T19:39:31.436Z,2.50
2023-11-25T19:41:58.387Z,2.60
2023-11-25T19:44:25.203Z,2.90
2023-11-25T19:46:55.260Z,2.60
2023-11-25T19:49:22.252Z,2.60
2023-11-25T19:51:49.384Z,2.50
2023-11-25T19:54:22.664Z,2.60
2023-11-25T19:56:50.294Z,1.20
2023-11-25T19:59:17.344Z,3.80
2023-11-25T20:01:44.549Z,3.50
2023-11-25T20:04:11.489Z,2.60
2023-11-25T20:06:38.215Z,2.50
2023-11-25T20:09:05.164Z,2.50
2023-11-25T20:11:31.859Z,2.50
2023-11-25T20:13:58.695Z,2.60
2023-11-25T20:16:25.464Z,2.70
2023-11-25T20:18:52.122Z,2.70
2023-11-25T20:21:18.804Z,2.70
2023-11-25T20:23:45.662Z,2.70
2023-11-25T20:26:12.418Z,2.70
2023-11-25T20:28:39.453Z,2.70
2023-11-25T20:31:06.296Z,2.70
2023-11-25T20:33:33.041Z,2.70
2023-11-25T20:36:00.324Z,2.70
2023-11-25T20:38:27.471Z,2.70
2023-11-25T20:40:54.408Z,2.70
2023-11-25T20:43:21.404Z,2.70
2023-11-25T20:45:49.540Z,2.80
2023-11-25T20:48:19.183Z,2.70
2023-11-25T20:50:46.349Z,2.80
2023-11-25T20:53:13.188Z,2.80
2023-11-25T20:55:40.374Z,2.70
2023-11-25T20:58:09.203Z,2.80
2023-11-25T21:00:36.645Z,2.80
2023-11-25T21:03:04.281Z,2.90
2023-11-25T21:05:31.846Z,2.80
2023-11-25T21:07:59.404Z,2.90
2023-11-25T21:10:26.284Z,3.00
2023-11-25T21:12:53.022Z,2.90
2023-11-25T21:15:21.264Z,2.90
2023-11-25T21:17:48.438Z,3.00
2023-11-25T21:20:15.259Z,3.00
2023-11-25T21:22:42.013Z,3.00
2023-11-25T21:25:09.111Z,3.00
2023-11-25T21:27:36.138Z,3.00
2023-11-25T21:30:03.181Z,3.00
2023-11-25T21:32:30.087Z,2.90
2023-11-25T21:34:56.988Z,2.90
2023-11-25T21:37:23.756Z,2.90
2023-11-25T21:39:50.616Z,2.90
2023-11-25T21:42:18.230Z,2.90
2023-11-25T21:44:45.003Z,2.90
2023-11-25T21:47:11.768Z,2.80
2023-11-25T21:49:39.086Z,4.80
2023-11-25T21:52:05.907Z,2.80
2023-11-25T21:54:32.623Z,2.80
2023-11-25T21:56:59.587Z,2.80
2023-11-25T21:59:26.728Z,2.80
2023-11-25T22:01:54.229Z,2.80
2023-11-25T22:04:23.396Z,2.90
2023-11-25T22:06:50.283Z,2.90
2023-11-25T22:09:17.003Z,2.80
2023-11-25T22:11:44.617Z,2.80
2023-11-25T22:14:11.428Z,2.80
2023-11-25T22:16:38.448Z,2.80
2023-11-25T22:19:05.276Z,2.70
2023-11-25T22:21:32.398Z,2.70
2023-11-25T22:23:59.252Z,4.40
2023-11-25T22:26:36.021Z,1.10
2023-11-25T22:29:05.679Z,2.60
2023-11-25T22:31:32.720Z,2.50
2023-11-25T22:34:00.086Z,2.50
2023-11-25T22:36:27.296Z,3.50
2023-11-25T22:38:54.389Z,3.60
2023-11-25T22:41:21.612Z,3.40
2023-11-25T22:43:49.955Z,2.30
2023-11-25T22:46:24.005Z,2.20
2023-11-25T22:48:51.331Z,2.20
2023-11-25T22:51:19.906Z,2.20
2023-11-25T22:53:50.249Z,2.20
2023-11-25T22:56:17.038Z,2.20
2023-11-25T22:58:44.067Z,2.20
2023-11-25T23:01:14.716Z,2.20
2023-11-25T23:03:41.610Z,2.20
2023-11-25T23:06:10.617Z,2.30
2023-11-25T23:08:38.245Z,2.30
2023-11-25T23:11:05.088Z,2.30
2023-11-25T23:13:31.810Z,2.30
2023-11-25T23:15:59.934Z,2.40
2023-11-25T23:18:26.659Z,2.40
2023-11-25T23:20:53.409Z,2.40
2023-11-25T23:23:20.605Z,2.40
2023-11-25T23:25:49.429Z,2.30
2023-11-25T23:28:17.955Z,2.40
2023-11-25T23:30:44.671Z,2.40
2023-11-25T23:33:11.504Z,2.40
2023-11-25T23:35:38.409Z,2.40
2023-11-25T23:38:05.968Z,2.40
2023-11-25T23:40:32.745Z,2.50
2023-11-25T23:42:59.646Z,2.40
2023-11-25T23:45:27.224Z,3.70
2023-11-25T23:47:54.110Z,2.20
2023-11-25T23:50:21.029Z,2.10
2023-11-25T23:52:47.730Z,2.10
2023-11-25T23:55:14.456Z,2.10
2023-11-25T23:57:41.218Z,2.30
